createdAt,value
2018-03-14T00:00:36.488Z,54.29
2018-03-14T00:03:05.040Z,53.89
2018-03-14T00:05:33.604Z,53.21
2018-03-14T00:08:02.232Z,54.04
2018-03-14T00:10:30.792Z,53.63
2018-03-14T00:12:59.356Z,53.46
2018-03-14T00:15:29.685Z,53.31
2018-03-14T00:17:58.248Z,52.05
2018-03-14T00:20:26.808Z,51.48
2018-03-14T00:22:55.418Z,52.06
2018-03-14T00:25:23.980Z,51.74
2018-03-14T00:27:52.540Z,52.21
2018-03-14T00:30:21.404Z,51.61
2018-03-14T00:32:49.965Z,51.12
2018-03-14T00:35:18.524Z,51.13
2018-03-14T00:37:47.145Z,52.16
2018-03-14T00:40:15.744Z,51.78
2018-03-14T00:42:44.304Z,51.49
2018-03-14T00:45:13.109Z,51.32
2018-03-14T00:47:41.675Z,51.98
2018-03-14T00:50:10.240Z,52.50
2018-03-14T00:52:38.844Z,52.34
2018-03-14T00:55:07.404Z,53.04
2018-03-14T00:57:35.956Z,52.98
2018-03-14T01:00:04.641Z,52.92
2018-03-14T01:02:33.967Z,53.25
2018-03-14T01:05:02.528Z,53.65
2018-03-14T01:07:32.088Z,53.96
2018-03-14T01:10:00.659Z,54.85
2018-03-14T01:12:29.284Z,54.56
2018-03-14T01:14:58.048Z,55.14
2018-03-14T01:17:26.664Z,54.31
2018-03-14T01:19:55.231Z,53.60
2018-03-14T01:22:23.836Z,54.96
2018-03-14T01:24:53.164Z,55.59
2018-03-14T01:27:21.721Z,56.14
2018-03-14T01:29:51.303Z,55.99
2018-03-14T01:32:20.648Z,55.14
2018-03-14T01:34:49.968Z,55.97
2018-03-14T01:37:18.689Z,56.07
2018-03-14T01:39:47.256Z,55.95
2018-03-14T01:42:15.821Z,56.49
2018-03-14T01:44:44.645Z,56.04
2018-03-14T01:47:13.232Z,56.10
2018-03-14T01:49:41.812Z,55.56
2018-03-14T01:52:10.591Z,56.18
2018-03-14T01:54:39.148Z,55.77
2018-03-14T01:57:07.717Z,56.47
2018-03-14T01:59:36.331Z,55.41
2018-03-14T02:02:04.900Z,55.24
2018-03-14T02:04:33.469Z,54.61
2018-03-14T02:07:02.208Z,53.91
2018-03-14T02:09:30.760Z,54.38
2018-03-14T02:11:59.326Z,55.12
2018-03-14T02:14:28.020Z,53.54
2018-03-14T02:16:56.588Z,54.35
2018-03-14T02:19:25.192Z,55.60
2018-03-14T02:21:53.789Z,54.35
2018-03-14T02:24:22.337Z,54.70
2018-03-14T02:26:50.896Z,54.14
2018-03-14T02:29:20.573Z,54.26
2018-03-14T02:31:49.115Z,53.67
2018-03-14T02:34:17.703Z,54.13
2018-03-14T02:39:42.457Z,53.30
2018-03-14T02:42:11.091Z,53.57
2018-03-14T02:44:39.677Z,53.16
2018-03-14T02:47:08.985Z,53.28
2018-03-14T02:49:38.436Z,52.88
2018-03-14T02:52:06.984Z,54.17
2018-03-14T02:54:35.537Z,53.92
2018-03-14T02:57:05.251Z,53.29
2018-03-14T02:59:34.908Z,51.39
2018-03-14T03:02:03.471Z,52.37
2018-03-14T03:04:32.281Z,52.56
2018-03-14T03:07:00.833Z,54.15
2018-03-14T03:09:29.380Z,54.61
2018-03-14T03:11:58.126Z,54.62
2018-03-14T03:14:26.676Z,55.15
2018-03-14T03:16:55.979Z,54.53
2018-03-14T03:19:24.616Z,53.82
2018-03-14T03:21:53.161Z,53.64
2018-03-14T03:24:21.707Z,54.30
2018-03-14T03:26:51.077Z,54.87
2018-03-14T03:29:19.631Z,54.89
2018-03-14T03:31:48.168Z,54.61
2018-03-14T03:34:17.742Z,54.22
2018-03-14T03:36:46.293Z,54.69
2018-03-14T03:39:14.845Z,53.63
2018-03-14T03:41:44.214Z,53.80
2018-03-14T03:44:12.764Z,53.22
2018-03-14T03:46:41.421Z,54.19
2018-03-14T03:49:10.778Z,53.71
2018-03-14T03:51:39.316Z,54.13
2018-03-14T03:54:08.629Z,54.93
2018-03-14T03:56:37.236Z,54.33
2018-03-14T03:59:05.784Z,53.07
2018-03-14T04:01:35.124Z,54.58
2018-03-14T04:04:03.920Z,56.01
2018-03-14T04:06:33.238Z,55.57
2018-03-14T04:09:01.785Z,55.05
2018-03-14T04:11:30.664Z,54.40
2018-03-14T04:13:59.976Z,54.85
2018-03-14T04:16:28.524Z,54.48
2018-03-14T04:18:57.121Z,54.83
2018-03-14T04:21:25.664Z,55.47
2018-03-14T04:23:54.226Z,54.86
2018-03-14T04:26:23.799Z,55.21
2018-03-14T04:28:52.348Z,56.48
2018-03-14T04:31:20.900Z,56.70
2018-03-14T04:33:50.551Z,56.01
2018-03-14T04:36:19.101Z,56.48
2018-03-14T04:38:48.404Z,55.63
2018-03-14T04:41:17.762Z,56.18
2018-03-14T04:43:46.313Z,55.89
2018-03-14T04:46:14.860Z,53.70
2018-03-14T04:48:44.216Z,53.86
2018-03-14T04:51:12.770Z,54.22
2018-03-14T04:53:41.316Z,53.88
2018-03-14T04:56:10.688Z,53.93
2018-03-14T04:58:39.237Z,53.77
2018-03-14T05:01:07.788Z,53.90
2018-03-14T05:03:36.524Z,54.50
2018-03-14T05:06:05.097Z,53.00
2018-03-14T05:08:33.637Z,53.77
2018-03-14T05:11:02.225Z,53.32
2018-03-14T05:13:31.568Z,51.87
2018-03-14T05:16:00.114Z,54.25
2018-03-14T05:18:29.672Z,53.46
2018-03-14T05:20:58.226Z,53.88
2018-03-14T05:23:26.764Z,54.98
2018-03-14T05:25:56.263Z,54.57
2018-03-14T05:28:25.575Z,54.88
2018-03-14T05:30:54.888Z,54.61
2018-03-14T05:33:23.477Z,54.48
2018-03-14T05:35:52.024Z,54.20
2018-03-14T05:38:21.341Z,53.87
2018-03-14T05:40:50.032Z,53.10
2018-03-14T05:43:18.600Z,52.54
2018-03-14T05:45:47.154Z,51.88
2018-03-14T05:48:16.706Z,52.58
2018-03-14T05:50:45.249Z,52.71
2018-03-14T05:53:14.561Z,52.91
2018-03-14T05:55:43.374Z,51.63
2018-03-14T05:58:11.926Z,51.55
2018-03-14T06:00:40.476Z,49.85
2018-03-14T06:03:09.849Z,51.36
2018-03-14T06:05:38.728Z,51.11
2018-03-14T06:08:07.350Z,50.47
2018-03-14T06:10:36.739Z,50.31
2018-03-14T06:13:05.310Z,49.80
2018-03-14T06:15:34.002Z,48.42
2018-03-14T06:18:03.502Z,48.05
2018-03-14T06:20:32.057Z,45.38
2018-03-14T06:23:01.292Z,47.43
2018-03-14T06:25:31.024Z,45.69
2018-03-14T06:28:00.345Z,45.04
2018-03-14T06:30:28.894Z,46.80
2018-03-14T06:32:57.663Z,45.66
2018-03-14T06:35:26.696Z,47.00
2018-03-14T06:37:56.019Z,47.16
2018-03-14T06:40:25.689Z,47.04
2018-03-14T06:42:54.250Z,46.46
2018-03-14T06:45:23.128Z,46.65
2018-03-14T06:47:51.916Z,47.75
2018-03-14T06:50:21.202Z,47.53
2018-03-14T06:52:49.758Z,47.29
2018-03-14T06:55:19.280Z,47.70
2018-03-14T06:57:47.841Z,47.60
2018-03-14T07:00:35.023Z,47.47
2018-03-14T07:03:21.200Z,47.85
2018-03-14T07:06:07.520Z,47.76
2018-03-14T07:08:36.073Z,47.53
2018-03-14T07:11:04.640Z,48.01
2018-03-14T07:13:33.470Z,48.63
2018-03-14T07:16:02.044Z,48.40
2018-03-14T07:18:30.581Z,47.25
2018-03-14T07:20:59.428Z,47.31
2018-03-14T07:23:27.974Z,47.66
2018-03-14T07:25:56.532Z,47.37
2018-03-14T07:28:26.109Z,47.54
2018-03-14T07:30:54.677Z,46.81
2018-03-14T07:33:23.263Z,46.46
2018-03-14T07:35:52.464Z,46.38
2018-03-14T07:38:21.348Z,46.38
2018-03-14T07:40:49.904Z,45.83
2018-03-14T07:43:18.614Z,46.37
2018-03-14T07:45:47.175Z,45.82
2018-03-14T07:48:16.682Z,46.78
2018-03-14T07:50:46.324Z,47.26
2018-03-14T07:53:14.756Z,47.20
2018-03-14T07:55:43.960Z,47.18
2018-03-14T07:58:13.347Z,47.22
2018-03-14T08:00:42.559Z,46.73
2018-03-14T08:03:11.003Z,46.14
2018-03-14T08:05:43.660Z,45.50
2018-03-14T08:08:12.622Z,44.73
2018-03-14T08:10:42.547Z,44.94
2018-03-14T08:13:10.999Z,44.84
2018-03-14T08:15:39.500Z,46.10
2018-03-14T08:18:07.977Z,45.34
2018-03-14T08:20:36.402Z,43.67
2018-03-14T08:23:04.835Z,43.70
2018-03-14T08:25:34.367Z,42.48
2018-03-14T08:28:02.791Z,42.51
2018-03-14T08:30:31.991Z,42.52
2018-03-14T08:33:01.234Z,40.68
2018-03-14T08:35:30.534Z,40.47
2018-03-14T08:38:00.633Z,41.49
2018-03-14T08:40:29.262Z,39.64
2018-03-14T08:42:58.773Z,38.49
2018-03-14T08:45:27.340Z,38.17
2018-03-14T08:47:55.940Z,37.87
2018-03-14T08:50:25.213Z,36.96
2018-03-14T08:52:54.591Z,38.68
2018-03-14T08:55:24.639Z,37.26
2018-03-14T08:57:53.189Z,36.47
2018-03-14T09:00:21.736Z,37.00
2018-03-14T09:02:51.105Z,37.37
2018-03-14T09:05:19.872Z,38.00
2018-03-14T09:07:48.442Z,37.01
2018-03-14T09:10:17.144Z,37.67
2018-03-14T09:12:45.801Z,38.36
2018-03-14T09:15:14.377Z,38.43
2018-03-14T09:17:43.740Z,38.41
2018-03-14T09:20:13.093Z,38.42
2018-03-14T09:22:41.651Z,38.81
2018-03-14T09:25:11.144Z,38.69
2018-03-14T09:27:41.089Z,38.00
2018-03-14T09:30:10.610Z,39.88
2018-03-14T09:32:39.166Z,39.87
2018-03-14T09:35:08.500Z,41.35
2018-03-14T09:37:37.876Z,41.88
2018-03-14T09:40:07.643Z,41.88
2018-03-14T09:42:36.266Z,42.15
2018-03-14T09:45:05.643Z,41.78
2018-03-14T09:47:34.868Z,41.38
2018-03-14T09:50:04.876Z,41.29
2018-03-14T09:52:34.336Z,41.67
2018-03-14T09:55:02.893Z,42.26
2018-03-14T09:57:31.461Z,41.73
2018-03-14T10:00:00.829Z,41.29
2018-03-14T10:02:29.690Z,41.18
2018-03-14T10:04:58.237Z,41.42
2018-03-14T10:07:26.988Z,40.12
2018-03-14T10:09:55.548Z,38.20
2018-03-14T10:12:24.097Z,37.89
2018-03-14T10:14:52.809Z,37.43
2018-03-14T10:17:21.448Z,37.57
2018-03-14T10:19:50.183Z,36.73
2018-03-14T10:22:18.870Z,36.92
2018-03-14T10:24:47.408Z,36.82
2018-03-14T10:27:15.973Z,37.65
2018-03-14T10:29:44.592Z,36.94
2018-03-14T10:32:13.933Z,35.38
2018-03-14T10:34:43.249Z,35.47
2018-03-14T10:37:12.067Z,35.35
2018-03-14T10:39:40.625Z,33.73
2018-03-14T10:42:09.239Z,34.52
2018-03-14T10:44:38.426Z,32.35
2018-03-14T10:47:06.980Z,31.80
2018-03-14T10:49:36.164Z,30.85
2018-03-14T10:52:06.496Z,32.48
2018-03-14T10:54:35.037Z,30.65
2018-03-14T10:57:03.603Z,31.24
2018-03-14T10:59:32.313Z,30.98
2018-03-14T11:02:07.194Z,30.62
2018-03-14T11:04:35.807Z,30.36
2018-03-14T11:07:04.391Z,29.50
2018-03-14T11:12:06.600Z,28.89
2018-03-14T11:14:35.173Z,29.29
2018-03-14T11:17:03.789Z,29.82
2018-03-14T11:19:32.416Z,30.65
2018-03-14T11:22:00.973Z,29.68
2018-03-14T11:24:29.526Z,28.21
2018-03-14T11:26:58.969Z,29.23
2018-03-14T11:29:28.168Z,29.09
2018-03-14T11:31:56.795Z,27.50
2018-03-14T11:34:25.487Z,27.00
2018-03-14T11:36:54.070Z,29.31
2018-03-14T11:39:22.624Z,28.64
2018-03-14T11:41:52.098Z,27.22
2018-03-14T11:44:21.024Z,26.72
2018-03-14T11:46:50.355Z,27.18
2018-03-14T11:49:18.972Z,28.30
2018-03-14T11:51:48.188Z,28.26
2018-03-14T11:54:17.198Z,28.27
2018-03-14T11:56:46.564Z,28.32
2018-03-14T11:59:15.117Z,28.77
2018-03-14T12:01:43.680Z,28.96
2018-03-14T12:04:13.765Z,30.09
2018-03-14T12:06:42.324Z,28.66
2018-03-14T12:09:10.956Z,29.42
2018-03-14T12:11:40.337Z,29.04
2018-03-14T12:14:09.537Z,28.61
2018-03-14T12:16:38.097Z,27.58
2018-03-14T12:19:06.704Z,29.31
2018-03-14T12:21:35.267Z,27.42
2018-03-14T12:24:04.665Z,27.39
2018-03-14T12:26:34.030Z,27.15
2018-03-14T12:29:02.605Z,26.65
2018-03-14T12:31:31.925Z,26.94
2018-03-14T12:34:00.538Z,28.15
2018-03-14T12:36:29.104Z,26.24
2018-03-14T12:38:57.707Z,26.26
2018-03-14T12:41:26.402Z,26.01
2018-03-14T12:43:54.967Z,27.84
2018-03-14T12:46:23.512Z,29.08
2018-03-14T12:48:52.881Z,27.38
2018-03-14T12:51:21.442Z,26.20
2018-03-14T12:53:49.994Z,26.39
2018-03-14T12:56:18.810Z,26.21
2018-03-14T12:58:47.385Z,27.26
2018-03-14T13:01:15.940Z,26.94
2018-03-14T13:03:44.560Z,27.17
2018-03-14T13:06:13.101Z,27.03
2018-03-14T13:08:41.685Z,27.14
2018-03-14T13:11:10.278Z,28.13
2018-03-14T13:13:38.832Z,27.26
2018-03-14T13:16:08.463Z,26.09
2018-03-14T13:18:37.157Z,26.25
2018-03-14T13:21:05.742Z,27.90
2018-03-14T13:23:34.971Z,30.38
2018-03-14T13:26:04.128Z,30.90
2018-03-14T13:28:32.681Z,33.80
2018-03-14T13:31:04.250Z,34.46
2018-03-14T13:33:33.391Z,35.53
2018-03-14T13:36:02.794Z,35.29
2018-03-14T13:38:31.367Z,34.61
2018-03-14T13:41:00.278Z,37.38
2018-03-14T13:43:28.852Z,39.28
2018-03-14T13:45:57.475Z,38.99
2018-03-14T13:48:26.081Z,39.19
2018-03-14T13:50:55.727Z,39.59
2018-03-14T13:53:24.281Z,40.51
2018-03-14T13:55:53.213Z,40.08
2018-03-14T13:58:21.906Z,40.38
2018-03-14T14:00:51.409Z,40.44
2018-03-14T14:03:20.191Z,40.19
2018-03-14T14:05:48.877Z,39.63
2018-03-14T14:08:18.376Z,40.79
2018-03-14T14:10:46.973Z,41.36
2018-03-14T14:13:15.521Z,41.32
2018-03-14T14:15:44.210Z,40.99
2018-03-14T14:18:12.821Z,40.69
2018-03-14T14:20:41.498Z,41.21
2018-03-14T14:23:10.050Z,41.54
2018-03-14T14:25:39.076Z,42.21
2018-03-14T14:28:08.449Z,41.57
2018-03-14T14:30:37.942Z,40.78
2018-03-14T14:33:06.541Z,40.87
2018-03-14T14:35:35.452Z,40.99
2018-03-14T14:38:04.012Z,40.20
2018-03-14T14:40:32.628Z,38.79
2018-03-14T14:43:01.189Z,39.11
2018-03-14T14:45:29.740Z,39.50
2018-03-14T14:47:59.241Z,39.16
2018-03-14T14:50:28.588Z,39.44
2018-03-14T14:52:57.148Z,38.95
2018-03-14T14:55:25.761Z,38.78
2018-03-14T14:57:54.351Z,39.00
2018-03-14T15:00:22.912Z,39.73
2018-03-14T15:02:51.513Z,39.35
2018-03-14T15:05:20.065Z,38.59
2018-03-14T15:07:48.973Z,39.15
2018-03-14T15:10:18.704Z,38.74
2018-03-14T15:12:47.266Z,39.54
2018-03-14T15:15:15.844Z,38.79
2018-03-14T15:17:45.220Z,38.29
2018-03-14T15:20:13.786Z,39.47
2018-03-14T15:22:42.341Z,40.40
2018-03-14T15:25:11.086Z,39.62
2018-03-14T15:27:39.657Z,40.25
2018-03-14T15:30:08.222Z,40.37
2018-03-14T15:32:36.922Z,40.66
2018-03-14T15:35:05.482Z,40.35
2018-03-14T15:37:34.038Z,41.73
2018-03-14T15:40:02.657Z,41.86
2018-03-14T15:42:31.213Z,42.40
2018-03-14T15:44:59.776Z,41.47
2018-03-14T15:47:29.329Z,41.57
2018-03-14T15:49:57.912Z,42.08
2018-03-14T15:52:26.472Z,42.09
2018-03-14T15:54:56.057Z,42.28
2018-03-14T15:57:25.380Z,42.27
2018-03-14T15:59:53.944Z,41.99
2018-03-14T16:02:22.641Z,42.34
2018-03-14T16:04:51.195Z,41.30
2018-03-14T16:07:19.765Z,41.14
2018-03-14T16:09:48.481Z,41.37
2018-03-14T16:12:17.055Z,42.67
2018-03-14T16:14:45.649Z,42.18
2018-03-14T16:17:14.309Z,42.88
2018-03-14T16:19:42.864Z,42.55
2018-03-14T16:22:11.685Z,41.95
2018-03-14T16:24:40.429Z,43.12
2018-03-14T16:27:10.533Z,41.67
2018-03-14T16:29:39.303Z,41.79
2018-03-14T16:32:07.908Z,42.50
2018-03-14T16:34:36.469Z,41.02
2018-03-14T16:37:05.042Z,41.68
2018-03-14T16:39:33.654Z,41.13
2018-03-14T16:42:02.216Z,40.90
2018-03-14T16:44:30.792Z,41.78
2018-03-14T16:46:59.792Z,42.34
2018-03-14T16:49:28.682Z,42.90
2018-03-14T16:51:57.246Z,43.46
2018-03-14T16:54:25.857Z,43.45
2018-03-14T16:56:54.440Z,43.72
2018-03-14T16:59:23.055Z,44.47
2018-03-14T17:01:52.453Z,44.42
2018-03-14T17:04:21.783Z,45.13
2018-03-14T17:06:50.349Z,44.74
2018-03-14T17:09:19.084Z,45.31
2018-03-14T17:11:47.649Z,45.50
2018-03-14T17:14:27.134Z,45.09
2018-03-14T17:16:45.761Z,44.50
2018-03-14T17:19:14.317Z,44.59
2018-03-14T17:21:42.878Z,45.16
2018-03-14T17:24:12.354Z,45.00
2018-03-14T17:26:41.725Z,45.26
2018-03-14T17:29:10.281Z,45.27
2018-03-14T17:31:38.908Z,44.95
2018-03-14T17:34:07.479Z,44.63
2018-03-14T17:36:36.036Z,44.85
2018-03-14T17:39:04.713Z,44.79
2018-03-14T17:41:33.280Z,44.80
2018-03-14T17:44:02.609Z,44.66
2018-03-14T17:46:31.596Z,44.53
2018-03-14T17:49:00.209Z,45.12
2018-03-14T17:51:28.799Z,45.24
2018-03-14T17:53:58.367Z,44.56
2018-03-14T17:56:26.941Z,45.15
2018-03-14T17:58:55.628Z,43.88
2018-03-14T18:01:24.374Z,43.88
2018-03-14T18:03:53.824Z,42.61
2018-03-14T18:06:22.509Z,43.27
2018-03-14T18:08:51.600Z,44.24
2018-03-14T18:11:20.188Z,45.21
2018-03-14T18:13:48.741Z,46.82
2018-03-14T18:16:17.353Z,48.45
2018-03-14T18:18:45.905Z,48.67
2018-03-14T18:21:14.485Z,47.76
2018-03-14T18:23:43.846Z,47.03
2018-03-14T18:26:12.538Z,48.48
2018-03-14T18:28:41.228Z,47.57
2018-03-14T18:31:10.168Z,46.64
2018-03-14T18:33:38.728Z,47.18
2018-03-14T18:36:07.292Z,46.67
2018-03-14T18:38:35.909Z,46.29
2018-03-14T18:41:05.285Z,46.14
2018-03-14T18:43:33.863Z,47.35
2018-03-14T18:46:02.489Z,48.06
2018-03-14T18:48:31.859Z,48.55
2018-03-14T18:51:00.429Z,48.20
2018-03-14T18:53:29.045Z,47.42
2018-03-14T18:55:58.368Z,47.51
2018-03-14T18:58:26.929Z,46.32
2018-03-14T19:00:56.305Z,46.03
2018-03-14T19:03:24.876Z,45.28
2018-03-14T19:05:53.561Z,46.47
2018-03-14T19:08:22.559Z,50.48
2018-03-14T19:10:52.064Z,52.84
2018-03-14T19:13:20.749Z,54.30
2018-03-14T19:15:49.405Z,51.41
2018-03-14T19:18:17.944Z,50.40
2018-03-14T19:20:47.421Z,50.14
2018-03-14T19:23:17.197Z,50.71
2018-03-14T19:25:45.940Z,50.52
2018-03-14T19:28:14.931Z,50.47
2018-03-14T19:30:43.898Z,49.63
2018-03-14T19:33:12.543Z,50.16
2018-03-14T19:35:41.273Z,50.01
2018-03-14T19:38:10.708Z,50.23
2018-03-14T19:40:40.042Z,50.88
2018-03-14T19:43:08.638Z,50.80
2018-03-14T19:45:37.409Z,50.53
2018-03-14T19:48:05.965Z,51.07
2018-03-14T19:50:35.286Z,51.05
2018-03-14T19:53:04.672Z,51.05
2018-03-14T19:55:34.037Z,51.80
2018-03-14T19:58:02.722Z,52.56
2018-03-14T20:00:31.466Z,52.58
2018-03-14T20:03:00.192Z,52.71
2018-03-14T20:05:28.826Z,51.15
2018-03-14T20:07:58.387Z,49.90
2018-03-14T20:10:27.088Z,49.03
2018-03-14T20:12:55.649Z,49.83
2018-03-14T20:15:24.344Z,51.42
2018-03-14T20:17:52.920Z,52.06
2018-03-14T20:20:21.607Z,53.22
2018-03-14T20:22:50.600Z,54.32
2018-03-14T20:25:19.189Z,53.86
2018-03-14T20:27:47.781Z,52.36
2018-03-14T20:30:16.386Z,53.37
2018-03-14T20:32:44.940Z,53.07
2018-03-14T20:35:13.567Z,52.83
2018-03-14T20:37:43.024Z,54.45
2018-03-14T20:40:11.706Z,53.24
2018-03-14T20:42:40.417Z,53.66
2018-03-14T20:45:09.135Z,54.43
2018-03-14T20:47:38.457Z,54.16
2018-03-14T20:50:07.135Z,53.45
2018-03-14T20:52:36.114Z,53.55
2018-03-14T20:55:05.580Z,53.40
2018-03-14T20:57:34.918Z,53.42
2018-03-14T21:00:03.550Z,53.31
2018-03-14T21:02:32.238Z,53.17
2018-03-14T21:05:00.825Z,53.50
2018-03-14T21:07:31.862Z,53.51
2018-03-14T21:10:00.417Z,53.41
2018-03-14T21:12:28.973Z,53.62
2018-03-14T21:14:58.737Z,53.38
2018-03-14T21:17:27.288Z,53.52
2018-03-14T21:19:55.838Z,53.44
2018-03-14T21:22:25.311Z,53.29
2018-03-14T21:24:53.998Z,53.66
2018-03-14T21:27:22.572Z,53.26
2018-03-14T21:29:51.363Z,53.35
2018-03-14T21:32:19.917Z,52.82
2018-03-14T21:34:48.465Z,52.86
2018-03-14T21:37:18.029Z,53.34
2018-03-14T21:39:46.793Z,53.18
2018-03-14T21:42:15.589Z,53.28
2018-03-14T21:44:44.513Z,53.17
2018-03-14T21:47:13.829Z,53.73
2018-03-14T21:49:43.473Z,54.10
2018-03-14T21:52:12.849Z,53.95
2018-03-14T21:54:41.465Z,54.39
2018-03-14T21:57:19.793Z,54.90
2018-03-14T21:59:48.377Z,54.69
2018-03-14T22:02:16.925Z,55.62
2018-03-14T22:04:45.594Z,55.15
2018-03-14T22:07:14.889Z,55.15
2018-03-14T22:09:43.440Z,55.29
2018-03-14T22:12:12.345Z,55.67
2018-03-14T22:14:41.832Z,53.95
2018-03-14T22:17:11.320Z,53.48
2018-03-14T22:19:40.412Z,54.00
2018-03-14T22:22:09.085Z,53.05
2018-03-14T22:24:37.784Z,54.19
2018-03-14T22:27:06.568Z,54.49
2018-03-14T22:29:35.213Z,54.36
2018-03-14T22:32:03.941Z,53.54
2018-03-14T22:34:33.099Z,52.93
2018-03-14T22:37:01.852Z,52.87
2018-03-14T22:39:31.182Z,52.73
2018-03-14T22:41:59.914Z,53.88
2018-03-14T22:44:28.597Z,53.85
2018-03-14T22:46:57.257Z,53.60
2018-03-14T22:49:26.176Z,53.69
2018-03-14T22:51:54.863Z,53.33
2018-03-14T22:54:23.550Z,54.01
2018-03-14T22:56:52.682Z,53.63
2018-03-14T22:59:22.102Z,53.58
2018-03-14T23:01:50.838Z,54.03
2018-03-14T23:04:19.432Z,53.37
2018-03-14T23:06:48.157Z,53.00
2018-03-14T23:09:17.605Z,52.33
2018-03-14T23:11:46.339Z,52.47
2018-03-14T23:14:15.803Z,51.77
2018-03-14T23:16:44.428Z,51.85
2018-03-14T23:19:14.092Z,49.72
2018-03-14T23:21:42.713Z,49.89
2018-03-14T23:24:12.179Z,50.50
2018-03-14T23:26:40.862Z,49.40
2018-03-14T23:29:09.550Z,49.53
2018-03-14T23:31:38.185Z,50.12
2018-03-14T23:34:06.921Z,51.60
2018-03-14T23:36:35.508Z,51.14
2018-03-14T23:39:04.291Z,51.24
2018-03-14T23:41:33.287Z,51.80
2018-03-14T23:44:01.979Z,50.44
2018-03-14T23:46:30.527Z,52.22
2018-03-14T23:48:59.441Z,51.96
2018-03-14T23:51:28.126Z,52.85
2018-03-14T23:53:56.820Z,52.88
2018-03-14T23:56:25.515Z,53.48
2018-03-14T23:58:54.282Z,52.68
